Time,TemperatureF,DewpointF,PressureIn,WindDirection,WindDirectionDegrees,WindSpeedMPH,WindSpeedGustMPH,Humidity,HourlyPrecipIn,Conditions,Clouds,dailyrainin,SoftwareType,DateUTC
2013-06-22 00:00:00,76.2,69.2,30.01,WNW,293,0.0,0.0,79,0.00,,,0.00,WUHU216HW,2013-06-22 04:00:00,
2013-06-22 00:05:00,76.1,69.5,30.01,NW,315,0.0,0.0,80,0.00,,,0.00,WUHU216HW,2013-06-22 04:05:00,
2013-06-22 00:10:00,76.1,69.5,30.02,NW,315,0.0,0.0,80,0.00,,,0.00,WUHU216HW,2013-06-22 04:10:00,
2013-06-22 00:15:00,76.1,69.5,30.02,NW,315,0.0,0.0,80,0.00,,,0.00,WUHU216HW,2013-06-22 04:15:00,
2013-06-22 00:20:00,76.1,69.5,30.02,NW,315,0.0,0.0,80,0.00,,,0.00,WUHU216HW,2013-06-22 04:20:00,
2013-06-22 00:25:00,75.9,69.3,30.03,NW,315,0.0,0.0,80,0.00,,,0.00,WUHU216HW,2013-06-22 04:25:00,
2013-06-22 00:30:00,75.9,69.3,30.03,NW,315,0.0,0.0,80,0.00,,,0.00,WUHU216HW,2013-06-22 04:30:00,
2013-06-22 00:35:00,75.7,69.2,30.03,NW,315,0.0,0.0,80,0.00,,,0.00,WUHU216HW,2013-06-22 04:35:00,
2013-06-22 00:40:00,75.7,69.5,30.02,NW,315,0.0,0.0,81,0.00,,,0.00,WUHU216HW,2013-06-22 04:40:00,
2013-06-22 00:45:00,75.5,69.3,30.03,NW,315,0.0,0.0,81,0.00,,,0.00,WUHU216HW,2013-06-22 04:45:00,
2013-06-22 00:50:00,75.3,69.2,30.03,NW,315,0.0,0.0,81,0.00,,,0.00,WUHU216HW,2013-06-22 04:50:00,
2013-06-22 00:55:00,75.3,69.2,30.04,NW,315,0.0,0.0,81,0.00,,,0.00,WUHU216HW,2013-06-22 04:55:00,
2013-06-22 01:00:00,75.0,68.8,30.04,NW,315,0.0,0.0,81,0.00,,,0.00,WUHU216HW,2013-06-22 05:00:00,
2013-06-22 01:05:00,74.8,68.7,30.04,NW,315,0.0,0.0,81,0.00,,,0.00,WUHU216HW,2013-06-22 05:05:00,
2013-06-22 01:10:00,74.8,68.7,30.03,NW,315,0.0,0.0,81,0.00,,,0.00,WUHU216HW,2013-06-22 05:10:00,
2013-06-22 01:15:00,74.8,68.7,30.03,NW,315,0.0,0.0,81,0.00,,,0.00,WUHU216HW,2013-06-22 05:15:00,
2013-06-22 01:20:00,74.6,68.5,30.03,NW,315,0.0,0.0,81,0.00,,,0.00,WUHU216HW,2013-06-22 05:20:00,
2013-06-22 01:25:00,74.4,68.6,30.03,NW,315,0.0,0.0,82,0.00,,,0.00,WUHU216HW,2013-06-22 05:25:00,
2013-06-22 01:31:00,74.3,68.5,30.03,NW,315,0.0,0.0,82,0.00,,,0.00,WUHU216HW,2013-06-22 05:31:00,
2013-06-22 01:36:00,74.1,68.3,30.03,NW,315,0.0,0.0,82,0.00,,,0.00,WUHU216HW,2013-06-22 05:36:00,
2013-06-22 01:41:00,73.9,68.1,30.03,NW,315,0.0,0.0,82,0.00,,,0.00,WUHU216HW,2013-06-22 05:41:00,
2013-06-22 01:46:00,73.9,68.1,30.03,NW,315,0.0,0.0,82,0.00,,,0.00,WUHU216HW,2013-06-22 05:46:00,
2013-06-22 01:51:00,73.7,67.9,30.03,NW,315,0.0,0.0,82,0.00,,,0.00,WUHU216HW,2013-06-22 05:51:00,
2013-06-22 01:56:00,73.5,67.7,30.03,NW,315,0.0,0.0,82,0.00,,,0.00,WUHU216HW,2013-06-22 05:56:00,
2013-06-22 02:01:00,73.5,67.7,30.03,NW,315,0.0,0.0,82,0.00,,,0.00,WUHU216HW,2013-06-22 06:01:00,
2013-06-22 02:06:00,73.2,67.4,30.03,NW,315,0.0,0.0,82,0.00,,,0.00,WUHU216HW,2013-06-22 06:06:00,
2013-06-22 02:11:00,73.2,67.7,30.03,NW,315,0.0,0.0,83,0.00,,,0.00,WUHU216HW,2013-06-22 06:11:00,
2013-06-22 02:16:00,73.2,67.7,30.03,NW,315,0.0,0.0,83,0.00,,,0.00,WUHU216HW,2013-06-22 06:16:00,
2013-06-22 02:21:00,73.2,67.7,30.03,NW,315,0.0,0.0,83,0.00,,,0.00,WUHU216HW,2013-06-22 06:21:00,
2013-06-22 02:26:00,73.2,67.7,30.03,NW,315,0.0,0.0,83,0.00,,,0.00,WUHU216HW,2013-06-22 06:26:00,
2013-06-22 02:31:00,73.2,67.7,30.03,NW,315,0.0,0.0,83,0.00,,,0.00,WUHU216HW,2013-06-22 06:31:00,
2013-06-22 02:36:00,73.2,67.7,30.03,NW,315,0.0,0.0,83,0.00,,,0.00,WUHU216HW,2013-06-22 06:36:00,
2013-06-22 02:41:00,73.0,67.5,30.03,NW,315,0.0,0.0,83,0.00,,,0.00,WUHU216HW,2013-06-22 06:41:00,
2013-06-22 02:46:00,73.0,67.9,30.03,NW,315,0.0,0.0,84,0.00,,,0.00,WUHU216HW,2013-06-22 06:46:00,
2013-06-22 02:51:00,72.6,67.5,30.03,NW,315,0.0,0.0,84,0.00,,,0.00,WUHU216HW,2013-06-22 06:51:00,
2013-06-22 02:56:00,72.6,67.5,30.03,NW,315,0.0,0.0,84,0.00,,,0.00,WUHU216HW,2013-06-22 06:56:00,
2013-06-22 03:01:00,72.6,67.5,30.03,NW,315,0.0,0.0,84,0.00,,,0.00,WUHU216HW,2013-06-22 07:01:00,
2013-06-22 03:06:00,72.5,67.3,30.03,NW,315,0.0,0.0,84,0.00,,,0.00,WUHU216HW,2013-06-22 07:06:00,
2013-06-22 03:11:00,72.3,67.2,30.03,NW,315,0.0,0.0,84,0.00,,,0.00,WUHU216HW,2013-06-22 07:11:00,
2013-06-22 03:16:00,72.3,67.2,30.03,NW,315,0.0,0.0,84,0.00,,,0.00,WUHU216HW,2013-06-22 07:16:00,
2013-06-22 03:21:00,72.1,67.0,30.02,NW,315,0.0,0.0,84,0.00,,,0.00,WUHU216HW,2013-06-22 07:21:00,
2013-06-22 03:26:00,72.1,67.0,30.02,NW,315,0.0,0.0,84,0.00,,,0.00,WUHU216HW,2013-06-22 07:26:00,
2013-06-22 03:31:00,72.1,67.0,30.02,NW,315,0.0,0.0,84,0.00,,,0.00,WUHU216HW,2013-06-22 07:31:00,
2013-06-22 03:36:00,71.9,66.8,30.02,NW,315,0.0,0.0,84,0.00,,,0.00,WUHU216HW,2013-06-22 07:36:00,
2013-06-22 03:41:00,71.9,67.1,30.02,NW,315,0.0,0.0,85,0.00,,,0.00,WUHU216HW,2013-06-22 07:41:00,
2013-06-22 03:46:00,71.7,67.0,30.02,NW,315,0.0,0.0,85,0.00,,,0.00,WUHU216HW,2013-06-22 07:46:00,
2013-06-22 03:51:00,71.7,67.0,30.01,NW,315,0.0,0.0,85,0.00,,,0.00,WUHU216HW,2013-06-22 07:51:00,
2013-06-22 03:56:00,71.7,67.0,30.02,NW,315,0.0,0.0,85,0.00,,,0.00,WUHU216HW,2013-06-22 07:56:00,
2013-06-22 04:01:00,71.6,66.8,30.01,NW,315,0.0,0.0,85,0.00,,,0.00,WUHU216HW,2013-06-22 08:01:00,
2013-06-22 04:06:00,71.4,66.6,30.01,NW,315,0.0,0.0,85,0.00,,,0.00,WUHU216HW,2013-06-22 08:06:00,
2013-06-22 04:11:00,71.4,66.6,30.01,NW,315,0.0,0.0,85,0.00,,,0.00,WUHU216HW,2013-06-22 08:11:00,
2013-06-22 04:16:00,71.4,66.6,30.01,NW,315,0.0,0.0,85,0.00,,,0.00,WUHU216HW,2013-06-22 08:16:00,
2013-06-22 04:21:00,71.4,66.6,30.01,NW,315,0.0,0.0,85,0.00,,,0.00,WUHU216HW,2013-06-22 08:21:00,
2013-06-22 04:26:00,71.4,66.6,30.01,NW,315,0.0,0.0,85,0.00,,,0.00,WUHU216HW,2013-06-22 08:26:00,
2013-06-22 04:31:00,71.2,66.4,30.01,NW,315,0.0,0.0,85,0.00,,,0.00,WUHU216HW,2013-06-22 08:31:00,
2013-06-22 04:36:00,71.2,66.4,30.01,NW,315,0.0,0.0,85,0.00,,,0.00,WUHU216HW,2013-06-22 08:36:00,
2013-06-22 04:41:00,71.2,66.4,30.01,NW,315,0.0,0.0,85,0.00,,,0.00,WUHU216HW,2013-06-22 08:41:00,
2013-06-22 04:46:00,71.0,66.2,30.01,NW,315,0.0,0.0,85,0.00,,,0.00,WUHU216HW,2013-06-22 08:46:00,
2013-06-22 04:51:00,70.8,66.1,30.01,NW,315,0.0,0.0,85,0.00,,,0.00,WUHU216HW,2013-06-22 08:51:00,
2013-06-22 04:56:00,70.8,66.4,30.01,NW,315,0.0,0.0,86,0.00,,,0.00,WUHU216HW,2013-06-22 08:56:00,
2013-06-22 05:01:00,70.8,66.4,30.01,NW,315,0.0,0.0,86,0.00,,,0.00,WUHU216HW,2013-06-22 09:01:00,
2013-06-22 05:06:00,70.8,66.1,30.01,NW,315,0.0,0.0,85,0.00,,,0.00,WUHU216HW,2013-06-22 09:06:00,
2013-06-22 05:11:00,70.8,66.4,30.01,NW,315,0.0,0.0,86,0.00,,,0.00,WUHU216HW,2013-06-22 09:11:00,
2013-06-22 05:16:00,70.7,66.2,30.01,NW,315,0.0,0.0,86,0.00,,,0.00,WUHU216HW,2013-06-22 09:16:00,
2013-06-22 05:21:00,70.5,66.0,30.01,NW,315,0.0,0.0,86,0.00,,,0.00,WUHU216HW,2013-06-22 09:21:00,
2013-06-22 05:26:00,70.5,66.0,30.01,NW,315,0.0,0.0,86,0.00,,,0.00,WUHU216HW,2013-06-22 09:26:00,
2013-06-22 05:31:00,70.5,66.0,30.01,NW,315,0.0,0.0,86,0.00,,,0.00,WUHU216HW,2013-06-22 09:31:00,
2013-06-22 05:36:00,70.5,66.0,30.01,NW,315,0.0,0.0,86,0.00,,,0.00,WUHU216HW,2013-06-22 09:36:00,
2013-06-22 05:41:00,70.5,66.0,30.01,NW,315,0.0,0.0,86,0.00,,,0.00,WUHU216HW,2013-06-22 09:41:00,
2013-06-22 05:46:00,70.3,65.9,30.01,NW,315,0.0,0.0,86,0.00,,,0.00,WUHU216HW,2013-06-22 09:46:00,
2013-06-22 05:51:00,70.3,65.9,30.01,NW,315,0.0,0.0,86,0.00,,,0.00,WUHU216HW,2013-06-22 09:51:00,
2013-06-22 05:56:00,70.3,65.9,30.01,NW,315,0.0,0.0,86,0.00,,,0.00,WUHU216HW,2013-06-22 09:56:00,
2013-06-22 06:01:00,70.3,65.9,30.02,NW,315,0.0,0.0,86,0.00,,,0.00,WUHU216HW,2013-06-22 10:01:00,
2013-06-22 06:06:00,70.3,65.9,30.02,NW,315,0.0,0.0,86,0.00,,,0.00,WUHU216HW,2013-06-22 10:06:00,
2013-06-22 06:11:00,70.3,65.9,30.03,NW,315,0.0,0.0,86,0.00,,,0.00,WUHU216HW,2013-06-22 10:11:00,
2013-06-22 06:16:00,70.1,65.7,30.03,NW,315,0.0,0.0,86,0.00,,,0.00,WUHU216HW,2013-06-22 10:16:00,
2013-06-22 06:21:00,70.1,65.7,30.03,NW,315,0.0,0.0,86,0.00,,,0.00,WUHU216HW,2013-06-22 10:21:00,
2013-06-22 06:26:00,69.9,65.5,30.03,NW,315,0.0,0.0,86,0.00,,,0.00,WUHU216HW,2013-06-22 10:26:00,
2013-06-22 06:31:00,69.9,65.5,30.03,NW,315,0.0,0.0,86,0.00,,,0.00,WUHU216HW,2013-06-22 10:31:00,
2013-06-22 06:36:00,69.9,65.5,30.03,NW,315,0.0,0.0,86,0.00,,,0.00,WUHU216HW,2013-06-22 10:36:00,
2013-06-22 06:41:00,69.6,65.1,30.03,NW,315,0.0,0.0,86,0.00,,,0.00,WUHU216HW,2013-06-22 10:41:00,
2013-06-22 06:46:00,69.6,65.1,30.03,NW,315,0.0,0.0,86,0.00,,,0.00,WUHU216HW,2013-06-22 10:46:00,
2013-06-22 06:51:00,69.6,65.1,30.04,NW,315,0.0,0.0,86,0.00,,,0.00,WUHU216HW,2013-06-22 10:51:00,
2013-06-22 06:56:00,69.6,65.1,30.03,NW,315,0.0,0.0,86,0.00,,,0.00,WUHU216HW,2013-06-22 10:56:00,
2013-06-22 07:01:00,69.4,65.0,30.04,NW,315,0.0,0.0,86,0.00,,,0.00,WUHU216HW,2013-06-22 11:01:00,
2013-06-22 07:06:00,69.4,65.0,30.04,NW,315,0.0,0.0,86,0.00,,,0.00,WUHU216HW,2013-06-22 11:06:00,
2013-06-22 07:11:00,69.4,65.0,30.04,NW,315,0.0,0.0,86,0.00,,,0.00,WUHU216HW,2013-06-22 11:11:00,
2013-06-22 07:16:00,69.4,65.0,30.04,NW,315,0.0,0.0,86,0.00,,,0.00,WUHU216HW,2013-06-22 11:16:00,
2013-06-22 07:21:00,69.4,65.0,30.05,NW,315,0.0,0.0,86,0.00,,,0.00,WUHU216HW,2013-06-22 11:21:00,
2013-06-22 07:26:00,69.4,65.0,30.04,NW,315,0.0,0.0,86,0.00,,,0.00,WUHU216HW,2013-06-22 11:26:00,
2013-06-22 07:31:00,69.4,65.3,30.04,NW,315,0.0,0.0,87,0.00,,,0.00,WUHU216HW,2013-06-22 11:31:00,
2013-06-22 07:36:00,69.4,65.3,30.05,NW,315,0.0,0.0,87,0.00,,,0.00,WUHU216HW,2013-06-22 11:36:00,
2013-06-22 07:41:00,69.6,65.5,30.05,NW,315,0.0,0.0,87,0.00,,,0.00,WUHU216HW,2013-06-22 11:41:00,
2013-06-22 07:46:00,69.6,65.5,30.05,NW,315,0.0,0.0,87,0.00,,,0.00,WUHU216HW,2013-06-22 11:46:00,
2013-06-22 07:51:00,69.6,65.5,30.05,NW,315,0.0,0.0,87,0.00,,,0.00,WUHU216HW,2013-06-22 11:51:00,
2013-06-22 07:56:00,69.8,65.7,30.05,NW,315,0.0,0.0,87,0.00,,,0.00,WUHU216HW,2013-06-22 11:56:00,
2013-06-22 08:01:00,69.9,65.8,30.06,NW,315,0.0,0.0,87,0.00,,,0.00,WUHU216HW,2013-06-22 12:01:00,
2013-06-22 08:06:00,70.1,66.0,30.05,NW,315,0.0,0.0,87,0.00,,,0.00,WUHU216HW,2013-06-22 12:06:00,
2013-06-22 08:11:00,70.3,66.2,30.05,NW,315,0.0,0.0,87,0.00,,,0.00,WUHU216HW,2013-06-22 12:11:00,
2013-06-22 08:16:00,70.5,66.4,30.05,NW,315,0.0,0.0,87,0.00,,,0.00,WUHU216HW,2013-06-22 12:16:00,
2013-06-22 08:21:00,70.7,66.6,30.05,NW,315,0.0,0.0,87,0.00,,,0.00,WUHU216HW,2013-06-22 12:21:00,
2013-06-22 08:26:00,70.8,66.7,30.05,NW,315,0.0,0.0,87,0.00,,,0.00,WUHU216HW,2013-06-22 12:26:00,
2013-06-22 08:31:00,71.2,67.4,30.06,NW,315,0.0,0.0,88,0.00,,,0.00,WUHU216HW,2013-06-22 12:31:00,
2013-06-22 08:36:00,71.2,67.1,30.05,NW,315,0.0,0.0,87,0.00,,,0.00,WUHU216HW,2013-06-22 12:36:00,
2013-06-22 08:41:00,71.4,67.6,30.05,NW,315,0.0,0.0,88,0.00,,,0.00,WUHU216HW,2013-06-22 12:41:00,
2013-06-22 08:46:00,71.7,67.6,30.06,NW,315,0.0,0.0,87,0.00,,,0.00,WUHU216HW,2013-06-22 12:46:00,
2013-06-22 08:51:00,71.9,67.8,30.06,NW,315,0.0,0.0,87,0.00,,,0.00,WUHU216HW,2013-06-22 12:51:00,
2013-06-22 08:56:00,72.3,68.5,30.06,NNW,338,0.0,0.0,88,0.00,,,0.00,WUHU216HW,2013-06-22 12:56:00,
2013-06-22 09:01:00,72.3,68.5,30.06,NNE,23,0.0,0.0,88,0.00,,,0.00,WUHU216HW,2013-06-22 13:01:00,
2013-06-22 09:06:00,72.5,68.7,30.06,NNE,23,0.0,0.0,88,0.00,,,0.00,WUHU216HW,2013-06-22 13:06:00,
2013-06-22 09:11:00,73.0,69.2,30.06,ENE,68,0.0,0.0,88,0.00,,,0.00,WUHU216HW,2013-06-22 13:11:00,
2013-06-22 09:16:00,73.2,69.4,30.06,NE,45,0.0,0.0,88,0.00,,,0.00,WUHU216HW,2013-06-22 13:16:00,
2013-06-22 09:21:00,73.5,69.8,30.06,SW,225,0.0,0.0,88,0.00,,,0.00,WUHU216HW,2013-06-22 13:21:00,
2013-06-22 09:26:00,74.1,70.0,30.06,SE,135,0.0,0.0,87,0.00,,,0.00,WUHU216HW,2013-06-22 13:26:00,
2013-06-22 09:31:00,74.6,70.5,30.06,NW,315,0.0,0.0,87,0.00,,,0.00,WUHU216HW,2013-06-22 13:31:00,
2013-06-22 09:36:00,75.0,70.9,30.06,SE,135,0.0,0.0,87,0.00,,,0.00,WUHU216HW,2013-06-22 13:36:00,
2013-06-22 09:42:00,75.5,71.1,30.07,SE,135,0.0,0.0,86,0.00,,,0.00,WUHU216HW,2013-06-22 13:42:00,
2013-06-22 09:47:00,75.7,71.2,30.07,SE,135,0.6,0.6,86,0.00,,,0.00,WUHU216HW,2013-06-22 13:47:00,
2013-06-22 09:52:00,75.9,71.4,30.07,ESE,113,2.6,2.6,86,0.00,,,0.00,WUHU216HW,2013-06-22 13:52:00,
2013-06-22 09:57:00,76.4,71.6,30.07,ESE,113,0.0,2.6,85,0.00,,,0.00,WUHU216HW,2013-06-22 13:57:00,
2013-06-22 10:02:00,76.8,71.9,30.07,SE,135,0.0,0.0,85,0.00,,,0.00,WUHU216HW,2013-06-22 14:02:00,
2013-06-22 10:07:00,77.0,71.7,30.06,East,90,0.0,3.1,84,0.00,,,0.00,WUHU216HW,2013-06-22 14:07:00,
2013-06-22 10:12:00,77.3,72.1,30.06,SSE,158,0.0,3.1,84,0.00,,,0.00,WUHU216HW,2013-06-22 14:12:00,
2013-06-22 10:17:00,77.5,72.3,30.06,SE,135,0.0,0.0,84,0.00,,,0.00,WUHU216HW,2013-06-22 14:17:00,
2013-06-22 10:22:00,77.7,72.1,30.06,ENE,68,0.0,4.9,83,0.00,,,0.00,WUHU216HW,2013-06-22 14:22:00,
2013-06-22 10:27:00,78.0,72.5,30.06,South,180,0.0,4.9,83,0.00,,,0.00,WUHU216HW,2013-06-22 14:27:00,
2013-06-22 10:32:00,78.4,72.8,30.06,SE,135,0.0,0.0,83,0.00,,,0.00,WUHU216HW,2013-06-22 14:32:00,
2013-06-22 10:37:00,78.6,73.0,30.06,NNW,338,0.0,0.4,83,0.00,,,0.00,WUHU216HW,2013-06-22 14:37:00,
2013-06-22 10:42:00,78.9,73.0,30.06,SE,135,0.0,0.4,82,0.00,,,0.00,WUHU216HW,2013-06-22 14:42:00,
2013-06-22 10:47:00,79.1,72.8,30.06,West,270,0.0,0.0,81,0.00,,,0.00,WUHU216HW,2013-06-22 14:47:00,
2013-06-22 10:52:00,79.3,72.6,30.06,SSE,158,0.0,0.0,80,0.00,,,0.00,WUHU216HW,2013-06-22 14:52:00,
2013-06-22 10:57:00,79.8,73.2,30.06,SE,135,6.7,6.7,80,0.00,,,0.00,WUHU216HW,2013-06-22 14:57:00,
2013-06-22 11:02:00,80.2,73.5,30.06,ESE,113,0.0,6.7,80,0.00,,,0.00,WUHU216HW,2013-06-22 15:02:00,
2013-06-22 11:07:00,80.2,73.5,30.06,ESE,113,0.0,6.7,80,0.00,,,0.00,WUHU216HW,2013-06-22 15:07:00,
2013-06-22 11:12:00,80.7,74.1,30.05,SSE,158,5.3,5.3,80,0.00,,,0.00,WUHU216HW,2013-06-22 15:12:00,
2013-06-22 11:17:00,80.7,74.1,30.06,SSE,158,0.0,5.3,79,0.00,,,0.00,WUHU216HW,2013-06-22 15:17:00,
2013-06-22 11:22:00,81.1,73.6,30.05,NE,45,0.0,0.0,78,0.00,,,0.00,WUHU216HW,2013-06-22 15:22:00,
2013-06-22 11:27:00,81.3,73.8,30.05,WNW,293,0.0,3.1,78,0.00,,,0.00,WUHU216HW,2013-06-22 15:27:00,
2013-06-22 11:32:00,81.6,74.1,30.05,ESE,113,5.8,5.8,78,0.00,,,0.00,WUHU216HW,2013-06-22 15:32:00,
2013-06-22 11:37:00,81.6,73.7,30.05,West,270,0.0,5.8,77,0.00,,,0.00,WUHU216HW,2013-06-22 15:37:00,
2013-06-22 11:42:00,82.0,73.7,30.05,SE,135,4.6,6.2,76,0.00,,,0.00,WUHU216HW,2013-06-22 15:42:00,
2013-06-22 11:47:00,82.2,73.9,30.06,ESE,113,0.0,6.2,76,0.00,,,0.00,WUHU216HW,2013-06-22 15:47:00,
2013-06-22 11:52:00,82.5,73.8,30.05,NW,315,0.0,0.0,75,0.00,,,0.00,WUHU216HW,2013-06-22 15:52:00,
2013-06-22 11:57:00,82.9,74.1,30.05,SE,135,6.2,6.2,75,0.00,,,0.00,WUHU216HW,2013-06-22 15:57:00,
2013-06-22 12:02:00,83.1,74.3,30.05,SSE,158,0.0,6.2,75,0.00,,,0.00,WUHU216HW,2013-06-22 16:02:00,
2013-06-22 12:07:00,83.1,73.9,30.05,NE,45,0.0,0.0,74,0.00,,,0.00,WUHU216HW,2013-06-22 16:07:00,
2013-06-22 12:12:00,83.4,74.2,30.05,WNW,293,3.3,3.3,74,0.00,,,0.00,WUHU216HW,2013-06-22 16:12:00,
2013-06-22 12:17:00,83.6,74.0,30.05,East,90,0.0,5.1,73,0.00,,,0.00,WUHU216HW,2013-06-22 16:17:00,
2013-06-22 12:22:00,83.8,73.8,30.05,South,180,0.0,10.0,72,0.00,,,0.00,WUHU216HW,2013-06-22 16:22:00,
2013-06-22 12:27:00,84.0,74.0,30.05,NE,45,0.0,10.0,72,0.00,,,0.00,WUHU216HW,2013-06-22 16:27:00,
2013-06-22 12:32:00,84.0,74.0,30.05,SE,135,0.0,4.0,72,0.00,,,0.00,WUHU216HW,2013-06-22 16:32:00,
2013-06-22 12:37:00,84.3,74.3,30.05,NNW,338,5.5,5.5,72,0.00,,,0.00,WUHU216HW,2013-06-22 16:37:00,
2013-06-22 12:42:00,84.5,74.1,30.05,SSE,158,0.0,5.5,71,0.00,,,0.00,WUHU216HW,2013-06-22 16:42:00,
2013-06-22 12:47:00,84.5,74.1,30.05,SSE,158,0.0,5.5,71,0.00,,,0.00,WUHU216HW,2013-06-22 16:47:00,
2013-06-22 12:52:00,84.7,74.3,30.05,SE,135,0.0,0.8,71,0.00,,,0.00,WUHU216HW,2013-06-22 16:52:00,
2013-06-22 12:57:00,84.9,74.5,30.05,SSE,158,0.0,0.8,71,0.00,,,0.00,WUHU216HW,2013-06-22 16:57:00,
2013-06-22 13:02:00,85.1,74.3,30.05,ESE,113,0.0,0.6,70,0.00,,,0.00,WUHU216HW,2013-06-22 17:02:00,
2013-06-22 13:07:00,85.6,74.8,30.05,ESE,113,0.0,0.6,70,0.00,,,0.00,WUHU216HW,2013-06-22 17:07:00,
2013-06-22 13:12:00,85.8,75.0,30.04,SE,135,2.6,2.6,70,0.00,,,0.00,WUHU216HW,2013-06-22 17:12:00,
2013-06-22 13:17:00,85.8,74.0,30.04,West,270,0.0,2.6,68,0.00,,,0.00,WUHU216HW,2013-06-22 17:17:00,
2013-06-22 13:22:00,86.0,74.2,30.05,ESE,113,0.0,0.0,68,0.00,,,0.00,WUHU216HW,2013-06-22 17:22:00,
2013-06-22 13:27:00,86.3,75.0,30.05,ESE,113,1.1,1.1,69,0.00,,,0.00,WUHU216HW,2013-06-22 17:27:00,
2013-06-22 13:32:00,86.7,74.9,30.04,SE,135,0.0,3.3,67,0.00,,,0.00,WUHU216HW,2013-06-22 17:32:00,
2013-06-22 13:37:00,86.9,74.6,30.04,SE,135,0.0,3.3,67,0.00,,,0.00,WUHU216HW,2013-06-22 17:37:00,
2013-06-22 13:42:00,86.7,74.4,30.03,SE,135,0.0,0.0,67,0.00,,,0.00,WUHU216HW,2013-06-22 17:42:00,
2013-06-22 13:47:00,86.5,74.7,30.03,East,90,0.0,0.0,68,0.00,,,0.00,WUHU216HW,2013-06-22 17:47:00,
2013-06-22 13:52:00,86.3,74.5,30.03,East,90,0.0,0.0,68,0.00,,,0.00,WUHU216HW,2013-06-22 17:52:00,
2013-06-22 13:57:00,86.1,73.9,30.03,SE,135,0.0,0.0,67,0.00,,,0.00,WUHU216HW,2013-06-22 17:57:00,
2013-06-22 14:02:00,86.3,74.5,30.03,SSE,158,0.0,0.0,68,0.00,,,0.00,WUHU216HW,2013-06-22 18:02:00,
2013-06-22 14:07:00,86.7,74.4,30.03,WSW,248,0.0,0.0,67,0.00,,,0.00,WUHU216HW,2013-06-22 18:07:00,
2013-06-22 14:12:00,86.7,73.9,30.03,SSE,158,0.0,0.0,66,0.00,,,0.00,WUHU216HW,2013-06-22 18:12:00,
2013-06-22 14:17:00,86.7,73.9,30.03,ESE,113,0.0,0.0,66,0.00,,,0.00,WUHU216HW,2013-06-22 18:17:00,
2013-06-22 14:22:00,86.7,73.9,30.03,East,90,0.0,0.0,66,0.00,,,0.00,WUHU216HW,2013-06-22 18:22:00,
2013-06-22 14:27:00,86.7,73.9,30.03,NW,315,6.7,6.7,66,0.00,,,0.00,WUHU216HW,2013-06-22 18:27:00,
2013-06-22 14:32:00,86.9,73.7,30.03,ESE,113,0.0,6.7,65,0.00,,,0.00,WUHU216HW,2013-06-22 18:32:00,
2013-06-22 14:37:00,87.0,73.8,30.02,SE,135,0.0,4.0,65,0.00,,,0.00,WUHU216HW,2013-06-22 18:37:00,
2013-06-22 14:42:00,87.0,73.8,30.02,East,90,0.0,0.0,65,0.00,,,0.00,WUHU216HW,2013-06-22 18:42:00,
2013-06-22 14:47:00,87.0,73.4,30.02,SE,135,0.0,0.0,64,0.00,,,0.00,WUHU216HW,2013-06-22 18:47:00,
2013-06-22 14:52:00,87.2,74.0,30.02,SSE,158,0.0,0.0,65,0.00,,,0.00,WUHU216HW,2013-06-22 18:52:00,
2013-06-22 14:57:00,87.4,73.3,30.02,West,270,0.0,2.9,63,0.00,,,0.00,WUHU216HW,2013-06-22 18:57:00,
2013-06-22 15:02:00,87.6,73.4,30.01,WSW,248,0.0,2.9,63,0.00,,,0.00,WUHU216HW,2013-06-22 19:02:00,
2013-06-22 15:07:00,87.6,73.9,30.01,NW,315,0.0,0.0,64,0.00,,,0.00,WUHU216HW,2013-06-22 19:07:00,
2013-06-22 15:12:00,87.6,73.9,30.01,WNW,293,1.3,1.3,64,0.00,,,0.00,WUHU216HW,2013-06-22 19:12:00,
2013-06-22 15:17:00,87.0,73.8,30.01,SSE,158,0.0,1.3,65,0.00,,,0.00,WUHU216HW,2013-06-22 19:17:00,
2013-06-22 15:22:00,86.9,73.7,30.01,South,180,0.0,0.0,65,0.00,,,0.00,WUHU216HW,2013-06-22 19:22:00,
2013-06-22 15:27:00,86.5,74.2,30.00,South,180,0.0,0.0,67,0.00,,,0.00,WUHU216HW,2013-06-22 19:27:00,
2013-06-22 15:32:00,86.1,74.4,30.01,SE,135,0.0,0.0,68,0.00,,,0.00,WUHU216HW,2013-06-22 19:32:00,
2013-06-22 15:37:00,86.0,73.7,30.01,East,90,0.0,0.0,67,0.00,,,0.00,WUHU216HW,2013-06-22 19:37:00,
2013-06-22 15:42:00,85.8,73.1,30.01,NW,315,5.5,6.2,66,0.00,,,0.00,WUHU216HW,2013-06-22 19:42:00,
2013-06-22 15:48:00,85.2,72.6,30.01,SE,135,1.7,6.2,66,0.00,,,0.00,WUHU216HW,2013-06-22 19:48:00,
2013-06-22 15:53:00,84.9,71.8,30.00,North,0,0.0,6.4,65,0.00,,,0.00,WUHU216HW,2013-06-22 19:53:00,
2013-06-22 15:58:00,84.7,71.6,30.00,WNW,293,5.3,7.1,65,0.00,,,0.00,WUHU216HW,2013-06-22 19:58:00,
2013-06-22 16:03:00,84.3,71.3,30.01,NNW,338,6.7,7.6,65,0.00,,,0.00,WUHU216HW,2013-06-22 20:03:00,
2013-06-22 16:08:00,83.8,70.3,30.01,West,270,5.8,13.6,64,0.00,,,0.00,WUHU216HW,2013-06-22 20:08:00,
2013-06-22 16:13:00,83.4,69.9,30.01,NE,45,0.0,13.6,64,0.00,,,0.00,WUHU216HW,2013-06-22 20:13:00,
2013-06-22 16:18:00,83.1,69.1,30.01,NW,315,11.8,11.8,63,0.00,,,0.00,WUHU216HW,2013-06-22 20:18:00,
2013-06-22 16:23:00,82.9,68.5,30.01,SW,225,0.0,11.8,62,0.00,,,0.00,WUHU216HW,2013-06-22 20:23:00,
2013-06-22 16:28:00,82.5,68.1,30.02,NNW,338,0.0,11.8,62,0.00,,,0.00,WUHU216HW,2013-06-22 20:28:00,
2013-06-22 16:33:00,82.2,68.2,30.02,North,0,2.6,6.9,63,0.00,,,0.00,WUHU216HW,2013-06-22 20:33:00,
2013-06-22 16:38:00,82.0,68.1,30.02,NNE,23,0.0,6.9,63,0.00,,,0.00,WUHU216HW,2013-06-22 20:38:00,
2013-06-22 16:43:00,82.0,68.5,30.02,North,0,1.5,2.6,64,0.00,,,0.00,WUHU216HW,2013-06-22 20:43:00,
2013-06-22 16:48:00,81.1,68.6,30.02,ENE,68,0.0,1.5,66,0.00,,,0.00,WUHU216HW,2013-06-22 20:48:00,
2013-06-22 16:53:00,80.6,69.0,30.02,East,90,0.0,0.8,68,0.00,,,0.00,WUHU216HW,2013-06-22 20:53:00,
2013-06-22 16:58:00,80.2,68.7,30.02,West,270,0.0,0.0,68,0.00,,,0.00,WUHU216HW,2013-06-22 20:58:00,
2013-06-22 17:03:00,79.5,68.4,30.02,East,90,0.0,0.0,69,0.00,,,0.00,WUHU216HW,2013-06-22 21:03:00,
2013-06-22 17:08:00,78.9,68.3,30.02,ESE,113,0.0,0.0,70,0.02,,,0.02,WUHU216HW,2013-06-22 21:08:00,
2013-06-22 17:13:00,78.6,68.3,30.02,SW,225,0.0,0.0,71,0.02,,,0.02,WUHU216HW,2013-06-22 21:13:00,
2013-06-22 17:18:00,78.0,67.9,30.02,North,0,0.0,0.0,71,0.02,,,0.02,WUHU216HW,2013-06-22 21:18:00,
2013-06-22 17:23:00,77.9,67.7,30.02,ENE,68,0.0,0.0,71,0.02,,,0.02,WUHU216HW,2013-06-22 21:23:00,
2013-06-22 17:28:00,77.7,67.9,30.02,SSE,158,0.0,0.0,72,0.02,,,0.02,WUHU216HW,2013-06-22 21:28:00,
2013-06-22 17:33:00,77.3,67.6,30.02,NW,315,0.0,0.0,72,0.02,,,0.02,WUHU216HW,2013-06-22 21:33:00,
2013-06-22 17:38:00,77.3,67.6,30.02,NE,45,0.0,0.0,72,0.02,,,0.02,WUHU216HW,2013-06-22 21:38:00,
2013-06-22 17:43:00,77.1,67.8,30.01,NE,45,0.0,0.0,73,0.02,,,0.02,WUHU216HW,2013-06-22 21:43:00,
2013-06-22 17:48:00,76.8,67.5,30.02,SW,225,0.0,0.0,73,0.02,,,0.02,WUHU216HW,2013-06-22 21:48:00,
2013-06-22 17:53:00,76.6,67.3,30.02,West,270,1.1,1.1,73,0.02,,,0.02,WUHU216HW,2013-06-22 21:53:00,
2013-06-22 17:58:00,76.2,67.3,30.02,NW,315,0.0,1.1,74,0.02,,,0.02,WUHU216HW,2013-06-22 21:58:00,
2013-06-22 18:03:00,75.9,67.0,30.02,NNW,338,0.0,1.1,74,0.02,,,0.02,WUHU216HW,2013-06-22 22:03:00,
2013-06-22 18:08:00,75.9,67.4,30.03,NW,315,0.0,0.6,75,0.00,,,0.02,WUHU216HW,2013-06-22 22:08:00,
2013-06-22 18:13:00,75.9,67.4,30.02,NW,315,0.0,0.6,75,0.00,,,0.02,WUHU216HW,2013-06-22 22:13:00,
2013-06-22 18:18:00,75.9,67.8,30.02,NW,315,0.0,0.0,76,0.00,,,0.02,WUHU216HW,2013-06-22 22:18:00,
2013-06-22 18:23:00,75.9,67.8,30.02,NW,315,0.0,0.0,76,0.00,,,0.02,WUHU216HW,2013-06-22 22:23:00,
2013-06-22 18:28:00,75.9,67.8,30.02,NW,315,0.0,0.0,76,0.00,,,0.02,WUHU216HW,2013-06-22 22:28:00,
2013-06-22 18:33:00,75.7,68.0,30.01,NW,315,0.0,0.0,77,0.00,,,0.02,WUHU216HW,2013-06-22 22:33:00,
2013-06-22 18:38:00,75.5,68.0,30.01,NW,315,0.0,0.0,77,0.00,,,0.02,WUHU216HW,2013-06-22 22:38:00,
2013-06-22 18:43:00,75.5,68.2,30.01,NW,315,0.0,0.0,78,0.00,,,0.02,WUHU216HW,2013-06-22 22:43:00,
2013-06-22 18:48:00,75.3,68.0,30.01,South,180,0.0,0.0,78,0.00,,,0.02,WUHU216HW,2013-06-22 22:48:00,
2013-06-22 18:53:00,75.3,68.0,30.01,WSW,248,0.0,0.0,78,0.00,,,0.02,WUHU216HW,2013-06-22 22:53:00,
2013-06-22 18:58:00,75.3,68.0,30.00,West,270,0.0,0.0,78,0.00,,,0.02,WUHU216HW,2013-06-22 22:58:00,
2013-06-22 19:03:00,75.3,68.0,30.00,NW,315,0.0,0.0,78,0.00,,,0.02,WUHU216HW,2013-06-22 23:03:00,
2013-06-22 19:08:00,75.3,68.0,29.99,WSW,248,0.0,0.0,78,0.00,,,0.02,WUHU216HW,2013-06-22 23:08:00,
2013-06-22 19:13:00,75.3,68.0,30.00,West,270,0.0,0.0,78,0.00,,,0.02,WUHU216HW,2013-06-22 23:13:00,
2013-06-22 19:18:00,75.2,67.9,30.01,West,270,0.0,0.0,78,0.00,,,0.02,WUHU216HW,2013-06-22 23:18:00,
2013-06-22 19:23:00,75.0,68.1,30.01,West,270,0.0,0.0,79,0.00,,,0.02,WUHU216HW,2013-06-22 23:23:00,
2013-06-22 19:28:00,75.0,68.1,30.01,West,270,0.0,0.0,79,0.00,,,0.02,WUHU216HW,2013-06-22 23:28:00,
2013-06-22 19:33:00,75.0,68.1,30.01,WSW,248,0.0,0.0,79,0.00,,,0.02,WUHU216HW,2013-06-22 23:33:00,
2013-06-22 19:38:00,75.0,68.1,30.01,WSW,248,0.0,0.0,79,0.00,,,0.02,WUHU216HW,2013-06-22 23:38:00,
2013-06-22 19:43:00,75.0,68.1,30.01,WSW,248,0.0,0.0,79,0.00,,,0.02,WUHU216HW,2013-06-22 23:43:00,
2013-06-22 19:48:00,74.8,67.9,30.01,West,270,0.0,0.0,79,0.00,,,0.02,WUHU216HW,2013-06-22 23:48:00,
2013-06-22 19:53:00,74.8,67.9,30.02,SW,225,0.0,0.0,79,0.00,,,0.02,WUHU216HW,2013-06-22 23:53:00,
2013-06-22 19:58:00,74.8,67.9,30.02,SW,225,0.0,0.0,79,0.00,,,0.02,WUHU216HW,2013-06-22 23:58:00,
2013-06-22 20:03:00,75.0,68.1,30.02,NW,315,0.0,0.0,79,0.00,,,0.02,WUHU216HW,2013-06-23 00:03:00,
2013-06-22 20:08:00,74.8,68.3,30.02,NW,315,0.0,0.0,80,0.00,,,0.02,WUHU216HW,2013-06-23 00:08:00,
2013-06-22 20:13:00,75.0,68.5,30.02,NW,315,0.0,0.0,80,0.00,,,0.02,WUHU216HW,2013-06-23 00:13:00,
2013-06-22 20:18:00,75.0,68.5,30.02,NW,315,0.0,0.0,80,0.00,,,0.02,WUHU216HW,2013-06-23 00:18:00,
2013-06-22 20:23:00,75.0,68.5,30.02,NW,315,0.0,0.0,80,0.00,,,0.02,WUHU216HW,2013-06-23 00:23:00,
2013-06-22 20:28:00,75.0,68.5,30.02,NW,315,0.0,0.0,80,0.00,,,0.02,WUHU216HW,2013-06-23 00:28:00,
2013-06-22 20:33:00,75.0,68.5,30.01,NW,315,0.0,0.0,80,0.00,,,0.02,WUHU216HW,2013-06-23 00:33:00,
2013-06-22 20:38:00,75.0,68.5,30.02,NW,315,0.0,0.0,80,0.00,,,0.02,WUHU216HW,2013-06-23 00:38:00,
2013-06-22 20:43:00,74.8,68.7,30.01,NW,315,0.0,0.0,81,0.00,,,0.02,WUHU216HW,2013-06-23 00:43:00,
2013-06-22 20:48:00,74.8,68.7,30.01,NW,315,0.0,0.0,81,0.00,,,0.02,WUHU216HW,2013-06-23 00:48:00,
2013-06-22 20:53:00,74.4,68.5,30.00,NW,315,0.0,0.0,81,0.00,,,0.02,WUHU216HW,2013-06-23 00:53:00,
2013-06-22 20:58:00,74.4,68.3,30.00,NW,315,0.0,0.0,81,0.00,,,0.02,WUHU216HW,2013-06-23 00:58:00,
2013-06-22 21:03:00,74.4,68.3,30.00,NW,315,0.0,0.0,81,0.00,,,0.02,WUHU216HW,2013-06-23 01:03:00,
2013-06-22 21:08:00,74.3,68.1,29.99,NW,315,0.0,0.0,81,0.00,,,0.02,WUHU216HW,2013-06-23 01:08:00,
2013-06-22 21:13:00,74.1,67.9,29.99,NW,315,0.0,0.0,81,0.00,,,0.02,WUHU216HW,2013-06-23 01:13:00,
2013-06-22 21:18:00,74.1,67.9,29.97,NW,315,0.0,0.0,81,0.00,,,0.02,WUHU216HW,2013-06-23 01:18:00,
2013-06-22 21:23:00,73.9,68.1,29.96,West,270,0.0,0.0,82,0.00,,,0.02,WUHU216HW,2013-06-23 01:23:00,
2013-06-22 21:28:00,73.9,68.1,29.95,WNW,293,0.0,0.0,82,0.00,,,0.02,WUHU216HW,2013-06-23 01:28:00,
2013-06-22 21:33:00,73.9,68.1,29.95,West,270,0.0,0.0,82,0.00,,,0.02,WUHU216HW,2013-06-23 01:33:00,
2013-06-22 21:38:00,73.9,68.1,29.96,ENE,68,0.0,0.0,82,0.00,,,0.02,WUHU216HW,2013-06-23 01:38:00,
2013-06-22 21:43:00,73.9,68.1,29.96,SE,135,0.0,0.0,82,0.00,,,0.02,WUHU216HW,2013-06-23 01:43:00,
2013-06-22 21:48:00,73.9,68.1,29.95,SSE,158,0.0,0.0,82,0.00,,,0.02,WUHU216HW,2013-06-23 01:48:00,
2013-06-22 21:53:00,73.9,68.1,29.94,NNW,338,0.0,0.0,82,0.00,,,0.02,WUHU216HW,2013-06-23 01:53:00,
2013-06-22 21:58:00,73.9,68.1,29.94,NNW,338,0.0,0.0,82,0.00,,,0.02,WUHU216HW,2013-06-23 01:58:00,
2013-06-22 22:03:00,73.9,68.1,29.96,NNW,338,0.0,0.0,82,0.00,,,0.02,WUHU216HW,2013-06-23 02:03:00,
2013-06-22 22:08:00,73.9,68.1,29.97,ENE,68,0.0,0.0,82,0.00,,,0.02,WUHU216HW,2013-06-23 02:08:00,
2013-06-22 22:13:00,73.9,68.1,29.97,ENE,68,0.0,0.0,82,0.00,,,0.02,WUHU216HW,2013-06-23 02:13:00,
2013-06-22 22:18:00,73.9,68.1,29.97,ENE,68,0.0,0.0,82,0.00,,,0.02,WUHU216HW,2013-06-23 02:18:00,
2013-06-22 22:23:00,73.9,68.1,29.97,ESE,113,0.0,0.0,82,0.00,,,0.02,WUHU216HW,2013-06-23 02:23:00,
2013-06-22 22:28:00,73.9,68.1,29.98,ESE,113,0.0,0.0,82,0.00,,,0.02,WUHU216HW,2013-06-23 02:28:00,
2013-06-22 22:33:00,73.5,67.7,29.98,ENE,68,0.0,0.0,82,0.00,,,0.02,WUHU216HW,2013-06-23 02:33:00,
2013-06-22 22:38:00,73.4,67.6,29.98,ESE,113,0.0,0.0,82,0.00,,,0.02,WUHU216HW,2013-06-23 02:38:00,
2013-06-22 22:43:00,73.2,67.4,29.99,ESE,113,0.0,0.0,82,0.00,,,0.02,WUHU216HW,2013-06-23 02:43:00,
2013-06-22 22:48:00,73.2,67.4,29.98,ESE,113,0.0,0.0,82,0.00,,,0.02,WUHU216HW,2013-06-23 02:48:00,
2013-06-22 22:53:00,73.2,67.4,29.98,ESE,113,0.0,0.0,82,0.00,,,0.02,WUHU216HW,2013-06-23 02:53:00,
2013-06-22 22:58:00,73.0,67.2,29.97,ESE,113,0.0,0.0,82,0.00,,,0.02,WUHU216HW,2013-06-23 02:58:00,
2013-06-22 23:03:00,73.0,67.2,29.97,East,90,0.0,0.0,82,0.00,,,0.02,WUHU216HW,2013-06-23 03:03:00,
2013-06-22 23:08:00,73.0,67.2,29.98,East,90,0.0,0.0,82,0.00,,,0.02,WUHU216HW,2013-06-23 03:08:00,
2013-06-22 23:13:00,73.0,67.2,29.98,East,90,0.0,0.0,82,0.00,,,0.02,WUHU216HW,2013-06-23 03:13:00,
2013-06-22 23:18:00,73.0,67.5,29.99,ESE,113,0.0,0.0,83,0.00,,,0.02,WUHU216HW,2013-06-23 03:18:00,
2013-06-22 23:23:00,72.8,67.4,29.99,ESE,113,0.0,0.0,83,0.00,,,0.02,WUHU216HW,2013-06-23 03:23:00,
2013-06-22 23:28:00,72.6,67.2,29.99,East,90,0.0,0.0,83,0.00,,,0.02,WUHU216HW,2013-06-23 03:28:00,
2013-06-22 23:33:00,72.6,67.2,29.99,East,90,0.0,0.0,83,0.00,,,0.02,WUHU216HW,2013-06-23 03:33:00,
2013-06-22 23:38:00,72.6,67.2,29.98,East,90,0.0,0.0,83,0.00,,,0.02,WUHU216HW,2013-06-23 03:38:00,
2013-06-22 23:43:00,72.5,67.0,29.98,East,90,0.0,0.0,83,0.00,,,0.02,WUHU216HW,2013-06-23 03:43:00,
2013-06-22 23:48:00,72.5,67.0,29.98,South,180,0.0,0.0,83,0.00,,,0.02,WUHU216HW,2013-06-23 03:48:00,
2013-06-22 23:53:00,72.3,66.8,29.97,NE,45,0.0,0.0,83,0.00,,,0.02,WUHU216HW,2013-06-23 03:53:00,
2013-06-22 23:58:00,72.3,66.8,29.98,East,90,0.0,0.0,83,0.00,,,0.02,WUHU216HW,2013-06-23 03:58:00,